KSEE/SEE METAR and TAF weather

Enter ICAO airport designator
Station Type Date Time Source
KSEE METAR 2022/01/23 12:15 UTC NOAA

KSEE 231215Z AUTO 00000KT 10SM CLR 05/01 A3009 RMK AO2


Station Type Date Time Source
KSEE Decoded METAR 2022/01/23 12:15 UTC NOAA

San Diego/El Cajon, Gillespie Field Airport, CA, United States (KSEE) 32-49-34N 116-58-20W
Jan 23, 2022 - 07:15 AM EST / 2022.01.23 1215 UTC
Wind: Calm:0
Visibility: 10 mile(s):0
Sky conditions: clear
Temperature: 41 F (5 C)
Dew Point: 33 F (1 C)
Relative Humidity: 75%
Pressure (altimeter): 30.09 in. Hg (1018 hPa)
ob: KSEE 231215Z AUTO 00000KT 10SM CLR 05/01 A3009 RMK AO2
cycle: 12

Station Type Date Time Source
KSEE TAF UTC NOAA

Error!

Example: see airport list